sensor_id;sensor_type;location;lat;lon;timestamp;P1;durP1;ratioP1;P2;durP2;ratioP2
15990;SDS011;8100;50.994;4.538;2022-10-03T00:06:21;4.53;;;2.17;;
15990;SDS011;8100;50.994;4.538;2022-10-03T00:09:21;6.30;;;2.70;;
15990;SDS011;8100;50.994;4.538;2022-10-03T00:12:33;4.15;;;2.38;;
15990;SDS011;8100;50.994;4.538;2022-10-03T00:15:33;4.43;;;2.40;;
15990;SDS011;8100;50.994;4.538;2022-10-03T00:18:31;3.75;;;2.35;;
15990;SDS011;8100;50.994;4.538;2022-10-03T00:21:28;5.57;;;2.22;;
15990;SDS011;8100;50.994;4.538;2022-10-03T00:24:26;4.07;;;2.67;;
15990;SDS011;8100;50.994;4.538;2022-10-03T00:27:27;6.30;;;2.30;;
15990;SDS011;8100;50.994;4.538;2022-10-03T00:30:19;3.45;;;2.40;;
15990;SDS011;8100;50.994;4.538;2022-10-03T00:33:11;2.85;;;2.30;;
15990;SDS011;8100;50.994;4.538;2022-10-03T00:36:07;4.07;;;2.30;;
15990;SDS011;8100;50.994;4.538;2022-10-03T00:45:57;3.63;;;2.30;;
15990;SDS011;8100;50.994;4.538;2022-10-03T00:52:32;4.25;;;1.98;;
15990;SDS011;8100;50.994;4.538;2022-10-03T00:55:34;3.50;;;1.90;;
15990;SDS011;8100;50.994;4.538;2022-10-03T00:58:50;5.68;;;2.60;;
15990;SDS011;8100;50.994;4.538;2022-10-03T01:01:47;2.83;;;2.08;;
15990;SDS011;8100;50.994;4.538;2022-10-03T01:04:40;3.65;;;1.98;;
15990;SDS011;8100;50.994;4.538;2022-10-03T01:07:44;5.15;;;2.17;;
15990;SDS011;8100;50.994;4.538;2022-10-03T01:10:43;5.22;;;2.40;;
15990;SDS011;8100;50.994;4.538;2022-10-03T01:13:39;3.22;;;1.92;;
15990;SDS011;8100;50.994;4.538;2022-10-03T01:16:37;2.97;;;2.00;;
15990;SDS011;8100;50.994;4.538;2022-10-03T01:19:34;4.35;;;2.20;;
15990;SDS011;8100;50.994;4.538;2022-10-03T01:26:04;2.72;;;2.20;;
15990;SDS011;8100;50.994;4.538;2022-10-03T01:29:02;2.90;;;1.90;;
15990;SDS011;8100;50.994;4.538;2022-10-03T01:32:14;3.45;;;2.15;;
15990;SDS011;8100;50.994;4.538;2022-10-03T01:35:08;4.75;;;2.10;;
15990;SDS011;8100;50.994;4.538;2022-10-03T01:38:12;4.57;;;2.28;;
15990;SDS011;8100;50.994;4.538;2022-10-03T01:41:05;3.95;;;2.25;;
15990;SDS011;8100;50.994;4.538;2022-10-03T01:44:00;4.72;;;2.47;;
15990;SDS011;8100;50.994;4.538;2022-10-03T01:47:06;2.85;;;2.05;;
15990;SDS011;8100;50.994;4.538;2022-10-03T01:50:04;3.85;;;2.22;;
15990;SDS011;8100;50.994;4.538;2022-10-03T01:52:59;4.22;;;2.25;;
15990;SDS011;8100;50.994;4.538;2022-10-03T01:55:54;3.58;;;2.20;;
15990;SDS011;8100;50.994;4.538;2022-10-03T01:58:48;6.22;;;2.20;;
15990;SDS011;8100;50.994;4.538;2022-10-03T02:01:46;4.43;;;2.10;;
15990;SDS011;8100;50.994;4.538;2022-10-03T02:04:41;3.17;;;2.15;;
15990;SDS011;8100;50.994;4.538;2022-10-03T02:07:37;6.20;;;2.22;;
15990;SDS011;8100;50.994;4.538;2022-10-03T02:10:32;5.55;;;2.03;;
15990;SDS011;8100;50.994;4.538;2022-10-03T02:13:27;5.82;;;2.50;;
15990;SDS011;8100;50.994;4.538;2022-10-03T02:16:28;6.70;;;2.58;;
15990;SDS011;8100;50.994;4.538;2022-10-03T02:19:23;6.00;;;2.28;;
15990;SDS011;8100;50.994;4.538;2022-10-03T02:22:14;7.28;;;2.45;;
15990;SDS011;8100;50.994;4.538;2022-10-03T02:25:18;4.10;;;2.05;;
15990;SDS011;8100;50.994;4.538;2022-10-03T02:28:27;2.90;;;2.10;;
15990;SDS011;8100;50.994;4.538;2022-10-03T02:38:25;3.88;;;2.03;;
15990;SDS011;8100;50.994;4.538;2022-10-03T02:41:46;6.43;;;2.30;;
15990;SDS011;8100;50.994;4.538;2022-10-03T02:45:05;4.22;;;1.90;;
15990;SDS011;8100;50.994;4.538;2022-10-03T02:48:23;3.97;;;1.98;;
15990;SDS011;8100;50.994;4.538;2022-10-03T02:51:49;3.45;;;1.80;;
15990;SDS011;8100;50.994;4.538;2022-10-03T02:54:55;2.35;;;1.83;;
15990;SDS011;8100;50.994;4.538;2022-10-03T03:01:29;3.75;;;2.13;;
15990;SDS011;8100;50.994;4.538;2022-10-03T03:04:50;3.80;;;2.00;;
15990;SDS011;8100;50.994;4.538;2022-10-03T03:11:25;4.82;;;2.28;;
15990;SDS011;8100;50.994;4.538;2022-10-03T03:17:45;5.15;;;2.50;;
15990;SDS011;8100;50.994;4.538;2022-10-03T03:20:40;3.78;;;2.35;;
15990;SDS011;8100;50.994;4.538;2022-10-03T03:23:39;3.72;;;2.03;;
15990;SDS011;8100;50.994;4.538;2022-10-03T03:26:50;4.43;;;2.53;;
15990;SDS011;8100;50.994;4.538;2022-10-03T03:29:55;3.78;;;2.40;;
15990;SDS011;8100;50.994;4.538;2022-10-03T03:32:54;4.20;;;2.38;;
15990;SDS011;8100;50.994;4.538;2022-10-03T03:35:54;5.88;;;2.15;;
15990;SDS011;8100;50.994;4.538;2022-10-03T03:38:52;5.57;;;2.45;;
15990;SDS011;8100;50.994;4.538;2022-10-03T03:41:55;3.75;;;2.50;;
15990;SDS011;8100;50.994;4.538;2022-10-03T03:45:08;6.63;;;2.78;;
15990;SDS011;8100;50.994;4.538;2022-10-03T03:48:34;5.47;;;2.40;;
15990;SDS011;8100;50.994;4.538;2022-10-03T03:51:47;5.05;;;2.50;;
15990;SDS011;8100;50.994;4.538;2022-10-03T03:55:00;4.32;;;2.40;;
15990;SDS011;8100;50.994;4.538;2022-10-03T03:58:07;5.25;;;2.67;;
15990;SDS011;8100;50.994;4.538;2022-10-03T04:01:16;6.07;;;2.50;;
15990;SDS011;8100;50.994;4.538;2022-10-03T04:04:24;4.40;;;2.63;;
15990;SDS011;8100;50.994;4.538;2022-10-03T04:07:20;5.70;;;2.65;;
15990;SDS011;8100;50.994;4.538;2022-10-03T04:10:20;3.90;;;2.63;;
15990;SDS011;8100;50.994;4.538;2022-10-03T04:13:28;3.97;;;2.20;;
15990;SDS011;8100;50.994;4.538;2022-10-03T04:16:41;6.32;;;2.42;;
15990;SDS011;8100;50.994;4.538;2022-10-03T04:20:06;4.65;;;2.80;;
15990;SDS011;8100;50.994;4.538;2022-10-03T04:23:05;8.55;;;3.10;;
15990;SDS011;8100;50.994;4.538;2022-10-03T04:26:17;5.32;;;2.30;;
15990;SDS011;8100;50.994;4.538;2022-10-03T04:32:32;5.18;;;2.13;;
15990;SDS011;8100;50.994;4.538;2022-10-03T04:35:55;4.47;;;2.20;;
15990;SDS011;8100;50.994;4.538;2022-10-03T04:39:09;3.72;;;2.20;;
15990;SDS011;8100;50.994;4.538;2022-10-03T04:42:08;4.03;;;2.28;;
15990;SDS011;8100;50.994;4.538;2022-10-03T04:45:16;4.68;;;2.60;;
15990;SDS011;8100;50.994;4.538;2022-10-03T04:48:13;5.05;;;2.53;;
15990;SDS011;8100;50.994;4.538;2022-10-03T04:51:10;3.17;;;2.10;;
15990;SDS011;8100;50.994;4.538;2022-10-03T04:54:12;4.35;;;2.30;;
15990;SDS011;8100;50.994;4.538;2022-10-03T04:57:14;4.65;;;2.20;;
15990;SDS011;8100;50.994;4.538;2022-10-03T05:00:13;3.65;;;2.03;;
15990;SDS011;8100;50.994;4.538;2022-10-03T05:03:11;3.55;;;2.22;;
15990;SDS011;8100;50.994;4.538;2022-10-03T05:06:06;3.72;;;2.55;;
15990;SDS011;8100;50.994;4.538;2022-10-03T05:09:12;4.35;;;2.20;;
15990;SDS011;8100;50.994;4.538;2022-10-03T05:12:09;3.55;;;2.08;;
15990;SDS011;8100;50.994;4.538;2022-10-03T05:15:11;4.63;;;2.45;;
15990;SDS011;8100;50.994;4.538;2022-10-03T05:18:09;4.50;;;2.20;;
15990;SDS011;8100;50.994;4.538;2022-10-03T05:21:04;6.15;;;2.58;;
15990;SDS011;8100;50.994;4.538;2022-10-03T05:24:00;6.97;;;2.05;;
15990;SDS011;8100;50.994;4.538;2022-10-03T05:26:58;3.55;;;2.45;;
15990;SDS011;8100;50.994;4.538;2022-10-03T05:29:50;3.22;;;2.13;;
15990;SDS011;8100;50.994;4.538;2022-10-03T05:32:46;3.08;;;2.28;;
15990;SDS011;8100;50.994;4.538;2022-10-03T05:35:42;7.63;;;2.45;;
15990;SDS011;8100;50.994;4.538;2022-10-03T05:38:56;5.32;;;2.38;;
15990;SDS011;8100;50.994;4.538;2022-10-03T05:42:21;4.32;;;2.30;;
15990;SDS011;8100;50.994;4.538;2022-10-03T05:45:23;5.43;;;2.40;;
15990;SDS011;8100;50.994;4.538;2022-10-03T05:48:23;7.97;;;2.17;;
15990;SDS011;8100;50.994;4.538;2022-10-03T05:51:21;6.05;;;2.45;;
15990;SDS011;8100;50.994;4.538;2022-10-03T05:54:57;6.03;;;2.45;;
15990;SDS011;8100;50.994;4.538;2022-10-03T05:58:29;5.55;;;2.13;;
15990;SDS011;8100;50.994;4.538;2022-10-03T06:01:50;4.57;;;2.40;;
15990;SDS011;8100;50.994;4.538;2022-10-03T06:05:10;7.95;;;2.28;;
15990;SDS011;8100;50.994;4.538;2022-10-03T06:08:18;4.35;;;2.38;;
15990;SDS011;8100;50.994;4.538;2022-10-03T06:11:53;3.42;;;2.20;;
15990;SDS011;8100;50.994;4.538;2022-10-03T06:15:02;6.03;;;2.65;;
15990;SDS011;8100;50.994;4.538;2022-10-03T06:18:09;6.78;;;2.47;;
15990;SDS011;8100;50.994;4.538;2022-10-03T06:21:19;5.07;;;2.38;;
15990;SDS011;8100;50.994;4.538;2022-10-03T06:24:24;4.35;;;2.65;;
15990;SDS011;8100;50.994;4.538;2022-10-03T06:31:10;4.13;;;2.45;;
15990;SDS011;8100;50.994;4.538;2022-10-03T06:34:30;4.75;;;2.40;;
15990;SDS011;8100;50.994;4.538;2022-10-03T06:48:07;4.70;;;2.70;;
15990;SDS011;8100;50.994;4.538;2022-10-03T06:58:08;6.32;;;2.63;;
15990;SDS011;8100;50.994;4.538;2022-10-03T07:04:45;3.45;;;2.60;;
15990;SDS011;8100;50.994;4.538;2022-10-03T07:08:02;5.82;;;3.10;;
15990;SDS011;8100;50.994;4.538;2022-10-03T07:11:22;5.85;;;3.13;;
15990;SDS011;8100;50.994;4.538;2022-10-03T07:14:29;3.70;;;2.50;;
15990;SDS011;8100;50.994;4.538;2022-10-03T07:17:40;7.88;;;3.13;;
15990;SDS011;8100;50.994;4.538;2022-10-03T07:24:16;7.85;;;3.35;;
15990;SDS011;8100;50.994;4.538;2022-10-03T07:27:23;8.88;;;3.35;;
15990;SDS011;8100;50.994;4.538;2022-10-03T07:30:25;8.82;;;3.90;;
15990;SDS011;8100;50.994;4.538;2022-10-03T07:33:34;7.32;;;3.80;;
15990;SDS011;8100;50.994;4.538;2022-10-03T07:36:45;6.57;;;3.42;;
15990;SDS011;8100;50.994;4.538;2022-10-03T07:43:39;8.38;;;3.45;;
15990;SDS011;8100;50.994;4.538;2022-10-03T07:46:41;9.02;;;3.40;;
15990;SDS011;8100;50.994;4.538;2022-10-03T07:50:02;9.23;;;3.72;;
15990;SDS011;8100;50.994;4.538;2022-10-03T07:56:59;6.18;;;3.53;;
15990;SDS011;8100;50.994;4.538;2022-10-03T08:00:07;9.18;;;3.40;;
15990;SDS011;8100;50.994;4.538;2022-10-03T08:06:36;8.18;;;3.83;;
15990;SDS011;8100;50.994;4.538;2022-10-03T08:13:02;12.15;;;4.47;;
15990;SDS011;8100;50.994;4.538;2022-10-03T08:16:14;11.63;;;3.50;;
15990;SDS011;8100;50.994;4.538;2022-10-03T08:19:23;7.65;;;3.70;;
15990;SDS011;8100;50.994;4.538;2022-10-03T08:22:24;6.90;;;3.35;;
15990;SDS011;8100;50.994;4.538;2022-10-03T08:25:25;6.28;;;3.55;;
15990;SDS011;8100;50.994;4.538;2022-10-03T08:28:22;10.45;;;3.65;;
15990;SDS011;8100;50.994;4.538;2022-10-03T08:31:43;12.77;;;4.90;;
15990;SDS011;8100;50.994;4.538;2022-10-03T08:35:12;12.18;;;4.15;;
15990;SDS011;8100;50.994;4.538;2022-10-03T08:38:19;7.50;;;3.42;;
15990;SDS011;8100;50.994;4.538;2022-10-03T08:41:34;6.55;;;2.75;;
15990;SDS011;8100;50.994;4.538;2022-10-03T08:45:02;9.93;;;3.60;;
15990;SDS011;8100;50.994;4.538;2022-10-03T08:58:34;8.63;;;2.88;;
15990;SDS011;8100;50.994;4.538;2022-10-03T09:05:15;8.25;;;2.63;;
15990;SDS011;8100;50.994;4.538;2022-10-03T09:08:36;6.55;;;2.67;;
15990;SDS011;8100;50.994;4.538;2022-10-03T09:12:08;5.15;;;2.53;;
15990;SDS011;8100;50.994;4.538;2022-10-03T09:15:12;5.88;;;2.65;;
15990;SDS011;8100;50.994;4.538;2022-10-03T09:18:41;8.50;;;2.72;;
15990;SDS011;8100;50.994;4.538;2022-10-03T09:25:19;8.27;;;2.50;;
15990;SDS011;8100;50.994;4.538;2022-10-03T09:28:29;6.15;;;2.67;;
15990;SDS011;8100;50.994;4.538;2022-10-03T09:35:05;8.70;;;2.17;;
15990;SDS011;8100;50.994;4.538;2022-10-03T09:41:46;7.80;;;2.30;;
15990;SDS011;8100;50.994;4.538;2022-10-03T09:45:05;5.82;;;1.70;;
15990;SDS011;8100;50.994;4.538;2022-10-03T09:48:19;5.65;;;1.67;;
15990;SDS011;8100;50.994;4.538;2022-10-03T09:51:22;9.30;;;2.30;;
15990;SDS011;8100;50.994;4.538;2022-10-03T09:54:21;14.80;;;2.42;;
15990;SDS011;8100;50.994;4.538;2022-10-03T10:00:39;7.95;;;1.92;;
15990;SDS011;8100;50.994;4.538;2022-10-03T10:04:11;9.68;;;2.13;;
15990;SDS011;8100;50.994;4.538;2022-10-03T10:10:51;9.32;;;2.28;;
15990;SDS011;8100;50.994;4.538;2022-10-03T10:21:09;10.63;;;2.35;;
15990;SDS011;8100;50.994;4.538;2022-10-03T10:34:26;8.32;;;1.60;;
15990;SDS011;8100;50.994;4.538;2022-10-03T10:37:53;4.88;;;1.55;;
15990;SDS011;8100;50.994;4.538;2022-10-03T10:48:02;10.05;;;2.35;;
15990;SDS011;8100;50.994;4.538;2022-10-03T10:51:21;10.32;;;1.70;;
15990;SDS011;8100;50.994;4.538;2022-10-03T10:58:04;6.60;;;1.52;;
15990;SDS011;8100;50.994;4.538;2022-10-03T11:01:49;4.95;;;1.20;;
15990;SDS011;8100;50.994;4.538;2022-10-03T11:05:05;3.85;;;1.13;;
15990;SDS011;8100;50.994;4.538;2022-10-03T11:08:29;7.15;;;1.70;;
15990;SDS011;8100;50.994;4.538;2022-10-03T11:11:54;2.88;;;1.45;;
15990;SDS011;8100;50.994;4.538;2022-10-03T11:25:55;6.10;;;1.45;;
15990;SDS011;8100;50.994;4.538;2022-10-03T11:39:31;7.05;;;1.45;;
15990;SDS011;8100;50.994;4.538;2022-10-03T11:42:29;5.28;;;1.48;;
15990;SDS011;8100;50.994;4.538;2022-10-03T11:45:30;9.48;;;1.50;;
15990;SDS011;8100;50.994;4.538;2022-10-03T11:48:24;7.25;;;1.13;;
15990;SDS011;8100;50.994;4.538;2022-10-03T11:51:34;6.60;;;1.40;;
15990;SDS011;8100;50.994;4.538;2022-10-03T11:54:27;7.47;;;1.42;;
15990;SDS011;8100;50.994;4.538;2022-10-03T11:57:20;7.57;;;1.58;;
15990;SDS011;8100;50.994;4.538;2022-10-03T12:00:15;7.43;;;1.30;;
15990;SDS011;8100;50.994;4.538;2022-10-03T12:03:09;3.85;;;1.10;;
15990;SDS011;8100;50.994;4.538;2022-10-03T12:06:08;12.27;;;1.38;;
15990;SDS011;8100;50.994;4.538;2022-10-03T12:09:20;5.22;;;1.25;;
15990;SDS011;8100;50.994;4.538;2022-10-03T12:12:16;4.95;;;1.20;;
15990;SDS011;8100;50.994;4.538;2022-10-03T12:15:25;12.68;;;1.50;;
15990;SDS011;8100;50.994;4.538;2022-10-03T12:18:21;6.97;;;1.25;;
15990;SDS011;8100;50.994;4.538;2022-10-03T12:21:21;3.65;;;1.38;;
15990;SDS011;8100;50.994;4.538;2022-10-03T12:24:17;3.47;;;0.95;;
15990;SDS011;8100;50.994;4.538;2022-10-03T12:27:12;4.97;;;1.13;;
15990;SDS011;8100;50.994;4.538;2022-10-03T12:30:10;5.90;;;1.20;;
15990;SDS011;8100;50.994;4.538;2022-10-03T12:33:06;4.43;;;1.40;;
15990;SDS011;8100;50.994;4.538;2022-10-03T12:36:04;6.70;;;1.40;;
15990;SDS011;8100;50.994;4.538;2022-10-03T12:39:01;4.78;;;1.17;;
15990;SDS011;8100;50.994;4.538;2022-10-03T12:42:09;3.28;;;1.00;;
15990;SDS011;8100;50.994;4.538;2022-10-03T12:45:22;7.93;;;1.30;;
15990;SDS011;8100;50.994;4.538;2022-10-03T12:48:18;5.63;;;1.25;;
15990;SDS011;8100;50.994;4.538;2022-10-03T12:51:20;2.67;;;0.93;;
15990;SDS011;8100;50.994;4.538;2022-10-03T12:54:31;3.17;;;0.95;;
15990;SDS011;8100;50.994;4.538;2022-10-03T12:57:44;4.20;;;0.80;;
15990;SDS011;8100;50.994;4.538;2022-10-03T13:00:38;6.82;;;1.50;;
15990;SDS011;8100;50.994;4.538;2022-10-03T13:03:34;7.35;;;1.30;;
15990;SDS011;8100;50.994;4.538;2022-10-03T13:06:37;4.10;;;1.00;;
15990;SDS011;8100;50.994;4.538;2022-10-03T13:09:37;7.57;;;1.48;;
15990;SDS011;8100;50.994;4.538;2022-10-03T13:12:39;5.82;;;0.90;;
15990;SDS011;8100;50.994;4.538;2022-10-03T13:15:43;6.50;;;1.15;;
15990;SDS011;8100;50.994;4.538;2022-10-03T13:18:55;4.15;;;1.15;;
15990;SDS011;8100;50.994;4.538;2022-10-03T13:21:55;2.92;;;1.02;;
15990;SDS011;8100;50.994;4.538;2022-10-03T13:24:52;4.70;;;1.10;;
15990;SDS011;8100;50.994;4.538;2022-10-03T13:27:45;8.52;;;1.10;;
15990;SDS011;8100;50.994;4.538;2022-10-03T13:30:37;8.35;;;1.25;;
15990;SDS011;8100;50.994;4.538;2022-10-03T13:33:33;8.25;;;1.20;;
15990;SDS011;8100;50.994;4.538;2022-10-03T13:36:29;2.67;;;1.00;;
15990;SDS011;8100;50.994;4.538;2022-10-03T13:39:22;4.75;;;1.13;;
15990;SDS011;8100;50.994;4.538;2022-10-03T13:42:13;6.38;;;0.90;;
15990;SDS011;8100;50.994;4.538;2022-10-03T13:45:05;8.50;;;1.30;;
15990;SDS011;8100;50.994;4.538;2022-10-03T13:48:00;3.20;;;0.90;;
15990;SDS011;8100;50.994;4.538;2022-10-03T13:50:54;5.30;;;0.70;;
15990;SDS011;8100;50.994;4.538;2022-10-03T13:53:53;5.45;;;0.93;;
15990;SDS011;8100;50.994;4.538;2022-10-03T13:56:47;4.03;;;0.80;;
15990;SDS011;8100;50.994;4.538;2022-10-03T13:59:42;4.65;;;0.90;;
15990;SDS011;8100;50.994;4.538;2022-10-03T14:02:50;6.30;;;1.15;;
15990;SDS011;8100;50.994;4.538;2022-10-03T14:05:56;7.30;;;1.10;;
15990;SDS011;8100;50.994;4.538;2022-10-03T14:09:00;4.32;;;1.02;;
15990;SDS011;8100;50.994;4.538;2022-10-03T14:12:03;4.05;;;1.10;;
15990;SDS011;8100;50.994;4.538;2022-10-03T14:15:03;4.13;;;1.30;;
15990;SDS011;8100;50.994;4.538;2022-10-03T14:18:11;3.60;;;0.90;;
15990;SDS011;8100;50.994;4.538;2022-10-03T14:21:22;5.25;;;1.00;;
15990;SDS011;8100;50.994;4.538;2022-10-03T14:24:29;3.72;;;0.90;;
15990;SDS011;8100;50.994;4.538;2022-10-03T14:27:35;3.45;;;0.73;;
15990;SDS011;8100;50.994;4.538;2022-10-03T14:30:30;5.15;;;1.00;;
15990;SDS011;8100;50.994;4.538;2022-10-03T14:33:30;6.30;;;1.13;;
15990;SDS011;8100;50.994;4.538;2022-10-03T14:36:28;5.15;;;1.48;;
15990;SDS011;8100;50.994;4.538;2022-10-03T14:39:30;4.18;;;1.10;;
15990;SDS011;8100;50.994;4.538;2022-10-03T14:42:32;3.60;;;1.10;;
15990;SDS011;8100;50.994;4.538;2022-10-03T14:45:37;3.05;;;0.98;;
15990;SDS011;8100;50.994;4.538;2022-10-03T14:48:27;3.33;;;0.82;;
15990;SDS011;8100;50.994;4.538;2022-10-03T14:51:18;4.80;;;1.05;;
15990;SDS011;8100;50.994;4.538;2022-10-03T14:54:15;3.85;;;0.90;;
15990;SDS011;8100;50.994;4.538;2022-10-03T14:57:20;5.20;;;0.90;;
15990;SDS011;8100;50.994;4.538;2022-10-03T15:00:26;5.10;;;1.08;;
15990;SDS011;8100;50.994;4.538;2022-10-03T15:03:27;2.25;;;0.90;;
15990;SDS011;8100;50.994;4.538;2022-10-03T15:06:19;15.02;;;4.40;;
15990;SDS011;8100;50.994;4.538;2022-10-03T15:09:17;6.80;;;1.55;;
15990;SDS011;8100;50.994;4.538;2022-10-03T15:12:10;3.95;;;1.10;;
15990;SDS011;8100;50.994;4.538;2022-10-03T15:15:06;5.22;;;1.40;;
15990;SDS011;8100;50.994;4.538;2022-10-03T15:17:57;5.43;;;1.10;;
15990;SDS011;8100;50.994;4.538;2022-10-03T15:20:49;5.28;;;1.30;;
15990;SDS011;8100;50.994;4.538;2022-10-03T15:23:40;3.58;;;1.25;;
15990;SDS011;8100;50.994;4.538;2022-10-03T15:26:32;5.75;;;1.77;;
15990;SDS011;8100;50.994;4.538;2022-10-03T15:29:22;5.45;;;1.73;;
15990;SDS011;8100;50.994;4.538;2022-10-03T15:32:16;5.50;;;1.20;;
15990;SDS011;8100;50.994;4.538;2022-10-03T15:35:14;5.88;;;1.60;;
15990;SDS011;8100;50.994;4.538;2022-10-03T15:38:07;9.70;;;2.03;;
15990;SDS011;8100;50.994;4.538;2022-10-03T15:41:05;5.72;;;1.92;;
15990;SDS011;8100;50.994;4.538;2022-10-03T15:43:56;8.82;;;1.90;;
15990;SDS011;8100;50.994;4.538;2022-10-03T15:46:51;10.55;;;1.90;;
15990;SDS011;8100;50.994;4.538;2022-10-03T15:49:43;5.10;;;1.70;;
15990;SDS011;8100;50.994;4.538;2022-10-03T15:52:35;5.22;;;2.00;;
15990;SDS011;8100;50.994;4.538;2022-10-03T15:55:28;6.65;;;2.25;;
15990;SDS011;8100;50.994;4.538;2022-10-03T15:58:23;9.50;;;2.10;;
15990;SDS011;8100;50.994;4.538;2022-10-03T16:01:18;5.25;;;1.60;;
15990;SDS011;8100;50.994;4.538;2022-10-03T16:04:13;4.75;;;1.65;;
15990;SDS011;8100;50.994;4.538;2022-10-03T16:07:05;10.00;;;1.95;;
15990;SDS011;8100;50.994;4.538;2022-10-03T16:09:59;8.38;;;2.13;;
15990;SDS011;8100;50.994;4.538;2022-10-03T16:13:00;7.80;;;2.00;;
15990;SDS011;8100;50.994;4.538;2022-10-03T16:16:02;6.40;;;1.90;;
15990;SDS011;8100;50.994;4.538;2022-10-03T16:18:58;5.32;;;2.20;;
15990;SDS011;8100;50.994;4.538;2022-10-03T16:22:06;9.20;;;2.10;;
15990;SDS011;8100;50.994;4.538;2022-10-03T16:25:04;6.00;;;2.15;;
15990;SDS011;8100;50.994;4.538;2022-10-03T16:27:56;8.07;;;2.70;;
15990;SDS011;8100;50.994;4.538;2022-10-03T16:30:49;6.18;;;3.13;;
15990;SDS011;8100;50.994;4.538;2022-10-03T16:33:43;7.75;;;2.10;;
15990;SDS011;8100;50.994;4.538;2022-10-03T16:36:40;7.68;;;2.22;;
15990;SDS011;8100;50.994;4.538;2022-10-03T16:39:31;7.13;;;2.50;;
15990;SDS011;8100;50.994;4.538;2022-10-03T16:42:21;4.20;;;2.00;;
15990;SDS011;8100;50.994;4.538;2022-10-03T16:45:17;4.20;;;2.28;;
15990;SDS011;8100;50.994;4.538;2022-10-03T16:48:10;6.45;;;2.38;;
15990;SDS011;8100;50.994;4.538;2022-10-03T16:51:18;5.25;;;2.20;;
15990;SDS011;8100;50.994;4.538;2022-10-03T16:54:06;5.18;;;2.40;;
15990;SDS011;8100;50.994;4.538;2022-10-03T16:56:59;5.88;;;2.50;;
15990;SDS011;8100;50.994;4.538;2022-10-03T16:59:51;7.63;;;2.03;;
15990;SDS011;8100;50.994;4.538;2022-10-03T17:02:39;4.60;;;3.25;;
15990;SDS011;8100;50.994;4.538;2022-10-03T17:05:26;5.97;;;2.83;;
15990;SDS011;8100;50.994;4.538;2022-10-03T17:08:17;6.18;;;2.60;;
15990;SDS011;8100;50.994;4.538;2022-10-03T17:11:06;6.10;;;2.55;;
15990;SDS011;8100;50.994;4.538;2022-10-03T17:13:57;4.80;;;2.30;;
15990;SDS011;8100;50.994;4.538;2022-10-03T17:16:49;7.70;;;2.17;;
15990;SDS011;8100;50.994;4.538;2022-10-03T17:19:41;9.65;;;2.40;;
15990;SDS011;8100;50.994;4.538;2022-10-03T17:22:32;6.00;;;2.50;;
15990;SDS011;8100;50.994;4.538;2022-10-03T17:25:32;5.03;;;2.13;;
15990;SDS011;8100;50.994;4.538;2022-10-03T17:28:26;7.10;;;2.10;;
15990;SDS011;8100;50.994;4.538;2022-10-03T17:31:29;5.95;;;2.05;;
15990;SDS011;8100;50.994;4.538;2022-10-03T17:34:20;5.95;;;2.10;;
15990;SDS011;8100;50.994;4.538;2022-10-03T17:37:18;4.20;;;1.67;;
15990;SDS011;8100;50.994;4.538;2022-10-03T17:40:44;8.32;;;2.72;;
15990;SDS011;8100;50.994;4.538;2022-10-03T17:43:37;4.90;;;2.55;;
15990;SDS011;8100;50.994;4.538;2022-10-03T17:46:33;6.20;;;2.10;;
15990;SDS011;8100;50.994;4.538;2022-10-03T17:49:30;5.22;;;2.13;;
15990;SDS011;8100;50.994;4.538;2022-10-03T17:52:28;7.53;;;2.20;;
15990;SDS011;8100;50.994;4.538;2022-10-03T17:55:17;5.53;;;2.00;;
15990;SDS011;8100;50.994;4.538;2022-10-03T17:58:12;4.88;;;2.35;;
15990;SDS011;8100;50.994;4.538;2022-10-03T18:01:04;7.82;;;2.67;;
15990;SDS011;8100;50.994;4.538;2022-10-03T18:03:59;9.48;;;3.72;;
15990;SDS011;8100;50.994;4.538;2022-10-03T18:06:48;15.00;;;5.65;;
15990;SDS011;8100;50.994;4.538;2022-10-03T18:09:41;19.80;;;8.52;;
15990;SDS011;8100;50.994;4.538;2022-10-03T18:12:33;37.53;;;16.25;;
15990;SDS011;8100;50.994;4.538;2022-10-03T18:15:38;50.88;;;21.40;;
15990;SDS011;8100;50.994;4.538;2022-10-03T18:18:50;54.97;;;23.50;;
15990;SDS011;8100;50.994;4.538;2022-10-03T18:22:06;54.67;;;22.90;;
15990;SDS011;8100;50.994;4.538;2022-10-03T18:25:05;42.60;;;16.80;;
15990;SDS011;8100;50.994;4.538;2022-10-03T18:28:18;35.08;;;15.20;;
15990;SDS011;8100;50.994;4.538;2022-10-03T18:31:08;30.50;;;13.60;;
15990;SDS011;8100;50.994;4.538;2022-10-03T18:34:02;17.50;;;8.23;;
15990;SDS011;8100;50.994;4.538;2022-10-03T18:36:55;14.88;;;6.57;;
15990;SDS011;8100;50.994;4.538;2022-10-03T18:39:46;13.75;;;6.50;;
15990;SDS011;8100;50.994;4.538;2022-10-03T18:42:34;13.95;;;6.78;;
15990;SDS011;8100;50.994;4.538;2022-10-03T18:45:22;9.10;;;5.30;;
15990;SDS011;8100;50.994;4.538;2022-10-03T18:48:16;13.35;;;6.88;;
15990;SDS011;8100;50.994;4.538;2022-10-03T18:51:10;10.98;;;5.88;;
15990;SDS011;8100;50.994;4.538;2022-10-03T18:54:03;12.43;;;5.75;;
15990;SDS011;8100;50.994;4.538;2022-10-03T18:57:05;12.27;;;4.72;;
15990;SDS011;8100;50.994;4.538;2022-10-03T18:59:59;7.15;;;5.03;;
15990;SDS011;8100;50.994;4.538;2022-10-03T19:02:49;11.65;;;5.72;;
15990;SDS011;8100;50.994;4.538;2022-10-03T19:05:41;8.85;;;5.18;;
15990;SDS011;8100;50.994;4.538;2022-10-03T19:08:34;10.52;;;5.07;;
15990;SDS011;8100;50.994;4.538;2022-10-03T19:11:27;8.02;;;5.22;;
15990;SDS011;8100;50.994;4.538;2022-10-03T19:14:17;10.95;;;5.60;;
15990;SDS011;8100;50.994;4.538;2022-10-03T19:17:18;12.43;;;5.00;;
15990;SDS011;8100;50.994;4.538;2022-10-03T19:20:13;10.15;;;4.93;;
15990;SDS011;8100;50.994;4.538;2022-10-03T19:23:08;10.18;;;4.72;;
15990;SDS011;8100;50.994;4.538;2022-10-03T19:25:59;9.60;;;5.57;;
15990;SDS011;8100;50.994;4.538;2022-10-03T19:28:52;12.15;;;6.43;;
15990;SDS011;8100;50.994;4.538;2022-10-03T19:31:44;16.90;;;7.65;;
15990;SDS011;8100;50.994;4.538;2022-10-03T19:34:45;11.63;;;5.88;;
15990;SDS011;8100;50.994;4.538;2022-10-03T19:37:37;15.77;;;7.32;;
15990;SDS011;8100;50.994;4.538;2022-10-03T19:40:29;12.75;;;6.57;;
15990;SDS011;8100;50.994;4.538;2022-10-03T19:43:29;10.88;;;6.07;;
15990;SDS011;8100;50.994;4.538;2022-10-03T19:49:42;13.07;;;6.30;;
15990;SDS011;8100;50.994;4.538;2022-10-03T19:52:38;12.90;;;6.57;;
15990;SDS011;8100;50.994;4.538;2022-10-03T19:55:28;10.85;;;5.80;;
15990;SDS011;8100;50.994;4.538;2022-10-03T19:58:19;9.98;;;6.18;;
15990;SDS011;8100;50.994;4.538;2022-10-03T20:01:09;18.80;;;9.15;;
15990;SDS011;8100;50.994;4.538;2022-10-03T20:03:58;13.55;;;8.27;;
15990;SDS011;8100;50.994;4.538;2022-10-03T20:06:46;12.55;;;7.47;;
15990;SDS011;8100;50.994;4.538;2022-10-03T20:09:35;11.32;;;6.75;;
15990;SDS011;8100;50.994;4.538;2022-10-03T20:12:25;13.00;;;6.75;;
15990;SDS011;8100;50.994;4.538;2022-10-03T20:15:17;16.95;;;7.80;;
15990;SDS011;8100;50.994;4.538;2022-10-03T20:18:10;12.07;;;6.78;;
15990;SDS011;8100;50.994;4.538;2022-10-03T20:21:09;12.80;;;7.15;;
15990;SDS011;8100;50.994;4.538;2022-10-03T20:23:57;17.52;;;7.53;;
15990;SDS011;8100;50.994;4.538;2022-10-03T20:26:47;11.90;;;6.78;;
15990;SDS011;8100;50.994;4.538;2022-10-03T20:29:44;14.13;;;6.70;;
15990;SDS011;8100;50.994;4.538;2022-10-03T20:32:36;11.25;;;6.30;;
15990;SDS011;8100;50.994;4.538;2022-10-03T20:35:30;12.40;;;7.50;;
15990;SDS011;8100;50.994;4.538;2022-10-03T20:38:41;16.35;;;7.50;;
15990;SDS011;8100;50.994;4.538;2022-10-03T20:41:48;15.70;;;7.63;;
15990;SDS011;8100;50.994;4.538;2022-10-03T20:44:52;10.52;;;5.57;;
15990;SDS011;8100;50.994;4.538;2022-10-03T20:47:49;11.68;;;6.40;;
15990;SDS011;8100;50.994;4.538;2022-10-03T20:50:45;16.95;;;6.95;;
15990;SDS011;8100;50.994;4.538;2022-10-03T20:53:33;14.27;;;6.07;;
15990;SDS011;8100;50.994;4.538;2022-10-03T20:56:24;9.98;;;6.38;;
15990;SDS011;8100;50.994;4.538;2022-10-03T20:59:18;10.65;;;5.78;;
15990;SDS011;8100;50.994;4.538;2022-10-03T21:02:13;14.20;;;6.57;;
15990;SDS011;8100;50.994;4.538;2022-10-03T21:05:11;9.32;;;5.88;;
15990;SDS011;8100;50.994;4.538;2022-10-03T21:08:09;10.15;;;6.20;;
15990;SDS011;8100;50.994;4.538;2022-10-03T21:11:03;11.95;;;5.65;;